Time;durP1;ratioP1;P1;durP2;ratioP2;P2;SDS_P1;SDS_P2;PMS_P1;PMS_P2;Temp;Humidity;BMP_temperature;BMP_pressure;BME280_temperature;BME280_humidity;BME280_pressure;Samples;Min_cycle;Max_cycle;Signal;HPM_P1;HPM_P2
2020/12/12 00:01:22;;;;;;;9.60;3.17;;;;;;;;;;5021719;28;20437;-79
2020/12/12 00:03:48;;;;;;;6.22;2.58;;;;;;;;;;5017880;28;20417;-80
2020/12/12 00:06:20;;;;;;;10.50;3.70;;;;;;;;;;5024962;28;20209;-80
2020/12/12 00:08:45;;;;;;;8.93;2.40;;;;;;;;;;5021576;28;20437;-80
2020/12/12 00:11:11;;;;;;;8.37;3.37;;;;;;;;;;5042747;28;20206;-80
2020/12/12 00:13:37;;;;;;;9.17;3.10;;;;;;;;;;5017696;28;20480;-80
2020/12/12 00:16:06;;;;;;;11.10;3.20;;;;;;;;;;5017109;28;20469;-79
2020/12/12 00:18:32;;;;;;;8.88;3.13;;;;;;;;;;5024675;28;20781;-79
2020/12/12 00:20:58;;;;;;;12.05;2.70;;;;;;;;;;5017611;28;20218;-80
2020/12/12 00:23:24;;;;;;;12.98;3.15;;;;;;;;;;5018323;28;20197;-80
2020/12/12 00:25:50;;;;;;;5.80;2.87;;;;;;;;;;5022252;28;20206;-79
2020/12/12 00:28:16;;;;;;;16.10;3.20;;;;;;;;;;5021564;28;20449;-80
2020/12/12 00:30:42;;;;;;;9.10;3.28;;;;;;;;;;5022415;28;20178;-80
2020/12/12 00:33:08;;;;;;;10.70;2.40;;;;;;;;;;5023690;28;20273;-79
2020/12/12 00:35:34;;;;;;;14.77;3.43;;;;;;;;;;5023011;28;20663;-81
2020/12/12 00:38:00;;;;;;;9.25;3.70;;;;;;;;;;5022641;28;20460;-80
2020/12/12 00:40:26;;;;;;;10.73;3.20;;;;;;;;;;5022170;28;20190;-80
2020/12/12 00:42:52;;;;;;;9.23;3.37;;;;;;;;;;5022039;28;20436;-80
2020/12/12 00:45:18;;;;;;;13.90;3.33;;;;;;;;;;5022797;28;20485;-80
2020/12/12 00:47:43;;;;;;;10.67;2.97;;;;;;;;;;5017651;28;20460;-80
2020/12/12 00:50:09;;;;;;;9.20;3.67;;;;;;;;;;5019277;28;20512;-80
2020/12/12 00:52:35;;;;;;;7.07;3.10;;;;;;;;;;5018167;28;20525;-80
2020/12/12 00:55:01;;;;;;;8.10;2.60;;;;;;;;;;5017163;28;20480;-81
2020/12/12 00:57:27;;;;;;;5.55;2.78;;;;;;;;;;5022369;28;20412;-80
2020/12/12 00:59:53;;;;;;;10.23;3.15;;;;;;;;;;5022544;28;20209;-80
2020/12/12 01:02:19;;;;;;;4.87;2.90;;;;;;;;;;5015683;28;20183;-80
2020/12/12 01:04:45;;;;;;;14.02;3.13;;;;;;;;;;5021858;28;20465;-80
2020/12/12 01:07:11;;;;;;;12.47;3.40;;;;;;;;;;5013894;28;20216;-79
2020/12/12 01:09:37;;;;;;;10.10;3.40;;;;;;;;;;5019754;28;20431;-81
2020/12/12 01:12:03;;;;;;;7.15;3.15;;;;;;;;;;5015521;28;20503;-81
2020/12/12 01:14:29;;;;;;;6.55;2.67;;;;;;;;;;5019918;28;20545;-80
2020/12/12 01:16:59;;;;;;;6.37;2.90;;;;;;;;;;5017678;28;20193;-80
2020/12/12 01:19:25;;;;;;;9.27;2.97;;;;;;;;;;5034617;28;20449;-81
2020/12/12 01:21:53;;;;;;;10.00;3.25;;;;;;;;;;5021749;28;20190;-80
2020/12/12 01:24:19;;;;;;;5.57;3.10;;;;;;;;;;5018568;28;20207;-82
2020/12/12 01:26:45;;;;;;;5.27;2.73;;;;;;;;;;5018931;28;20189;-82
2020/12/12 01:29:11;;;;;;;7.60;2.65;;;;;;;;;;5018939;28;20473;-81
2020/12/12 01:31:37;;;;;;;9.30;2.70;;;;;;;;;;5022539;28;20178;-82
2020/12/12 01:34:03;;;;;;;9.85;4.72;;;;;;;;;;5022943;28;20170;-80
2020/12/12 01:36:29;;;;;;;9.57;3.00;;;;;;;;;;5015951;28;20181;-80
2020/12/12 01:38:55;;;;;;;9.75;3.88;;;;;;;;;;5022552;28;20182;-81
2020/12/12 01:41:22;;;;;;;8.30;2.77;;;;;;;;;;5016159;28;20182;-80
2020/12/12 01:43:54;;;;;;;7.13;3.47;;;;;;;;;;5020440;28;20452;-81
2020/12/12 01:46:25;;;;;;;6.13;2.13;;;;;;;;;;5021717;28;20186;-81
2020/12/12 01:48:52;;;;;;;6.47;3.05;;;;;;;;;;5014203;28;20396;-80
2020/12/12 01:51:20;;;;;;;8.90;3.38;;;;;;;;;;5017517;28;20703;-81
2020/12/12 01:53:47;;;;;;;7.93;2.42;;;;;;;;;;5011575;28;20225;-81
2020/12/12 01:56:13;;;;;;;8.05;2.58;;;;;;;;;;5015762;28;20190;-81
2020/12/12 01:58:39;;;;;;;11.85;2.50;;;;;;;;;;5023354;28;20667;-81
2020/12/12 02:01:06;;;;;;;9.80;2.73;;;;;;;;;;5021234;28;20225;-80
2020/12/12 02:03:32;;;;;;;5.55;2.40;;;;;;;;;;5023483;28;21072;-81
2020/12/12 02:06:01;;;;;;;8.82;3.58;;;;;;;;;;5021105;28;20213;-80
2020/12/12 02:08:27;;;;;;;9.15;2.70;;;;;;;;;;5021893;28;20230;-80
2020/12/12 02:10:53;;;;;;;10.40;2.93;;;;;;;;;;5022512;28;20191;-80
2020/12/12 02:13:19;;;;;;;9.87;2.70;;;;;;;;;;5021770;28;20508;-81
2020/12/12 02:15:45;;;;;;;9.90;2.67;;;;;;;;;;5021834;28;20422;-81
2020/12/12 02:18:21;;;;;;;8.93;3.58;;;;;;;;;;5019422;28;20755;-81
2020/12/12 02:21:00;;;;;;;13.15;3.20;;;;;;;;;;5022165;28;20194;-81
2020/12/12 02:23:27;;;;;;;13.20;2.78;;;;;;;;;;5016149;28;20195;-81
2020/12/12 02:25:53;;;;;;;8.70;2.50;;;;;;;;;;5009236;28;20208;-81
2020/12/12 02:28:22;;;;;;;6.50;2.22;;;;;;;;;;5021240;28;20197;-81
2020/12/12 02:30:48;;;;;;;8.30;2.45;;;;;;;;;;5026163;28;20233;-81
2020/12/12 02:33:14;;;;;;;7.70;2.67;;;;;;;;;;5027254;28;20170;-81
2020/12/12 02:35:40;;;;;;;7.55;2.13;;;;;;;;;;5019922;28;20191;-81
2020/12/12 02:38:06;;;;;;;8.25;2.53;;;;;;;;;;5048462;28;20186;-81
2020/12/12 02:40:32;;;;;;;23.33;3.28;;;;;;;;;;5014004;28;20241;-81
2020/12/12 02:42:58;;;;;;;5.43;2.40;;;;;;;;;;5024090;28;20209;-81
2020/12/12 02:45:24;;;;;;;11.52;2.97;;;;;;;;;;5025499;28;20292;-80
2020/12/12 02:47:50;;;;;;;5.13;2.33;;;;;;;;;;5024369;28;20231;-81
2020/12/12 02:50:25;;;;;;;7.53;2.10;;;;;;;;;;5020877;28;20656;-80
2020/12/12 02:52:51;;;;;;;6.68;2.50;;;;;;;;;;5010544;28;20528;-81
2020/12/12 02:55:17;;;;;;;7.47;2.35;;;;;;;;;;5021389;28;20628;-82
2020/12/12 02:57:43;;;;;;;9.93;3.17;;;;;;;;;;5014452;28;20187;-80
2020/12/12 03:00:11;;;;;;;14.53;2.73;;;;;;;;;;5020749;28;20187;-82
2020/12/12 03:02:37;;;;;;;10.50;2.65;;;;;;;;;;5018654;28;20442;-81
2020/12/12 03:05:04;;;;;;;7.28;2.53;;;;;;;;;;5017533;28;20206;-80
2020/12/12 03:07:31;;;;;;;7.57;2.55;;;;;;;;;;5023999;28;20178;-80
2020/12/12 03:09:57;;;;;;;13.38;3.58;;;;;;;;;;5024753;28;20317;-81
2020/12/12 03:12:22;;;;;;;6.17;2.80;;;;;;;;;;5019323;28;20179;-81
2020/12/12 03:14:48;;;;;;;7.07;3.27;;;;;;;;;;5024321;28;20449;-82
2020/12/12 03:17:14;;;;;;;6.82;2.70;;;;;;;;;;5016614;28;20485;-81
2020/12/12 03:19:40;;;;;;;3.20;2.10;;;;;;;;;;5024679;28;20191;-81
2020/12/12 03:22:06;;;;;;;6.87;2.70;;;;;;;;;;5018298;28;20965;-81
2020/12/12 03:24:33;;;;;;;5.45;2.30;;;;;;;;;;5025068;28;20468;-80
2020/12/12 03:26:59;;;;;;;9.73;2.30;;;;;;;;;;5034522;28;20185;-81
2020/12/12 03:29:25;;;;;;;11.52;2.50;;;;;;;;;;5019423;28;20187;-81
2020/12/12 03:31:51;;;;;;;7.53;2.13;;;;;;;;;;5024837;28;20187;-81
2020/12/12 03:34:17;;;;;;;6.65;2.85;;;;;;;;;;5024249;28;20186;-81
2020/12/12 03:36:43;;;;;;;4.40;2.20;;;;;;;;;;5021002;28;20178;-80
2020/12/12 03:39:09;;;;;;;13.68;2.22;;;;;;;;;;5023259;28;20639;-80
2020/12/12 03:41:35;;;;;;;9.75;3.05;;;;;;;;;;5016449;28;20187;-81
2020/12/12 03:44:01;;;;;;;8.90;3.75;;;;;;;;;;5018159;28;20186;-82
2020/12/12 03:46:27;;;;;;;7.32;2.40;;;;;;;;;;5023036;28;20189;-82
2020/12/12 03:48:53;;;;;;;4.13;1.95;;;;;;;;;;5019033;28;20175;-80
2020/12/12 03:51:19;;;;;;;5.70;1.80;;;;;;;;;;5023954;28;20182;-82
2020/12/12 03:53:45;;;;;;;7.70;2.80;;;;;;;;;;5020647;28;20475;-81
2020/12/12 03:56:11;;;;;;;7.00;2.28;;;;;;;;;;5046036;28;20532;-82
2020/12/12 03:58:37;;;;;;;7.63;3.10;;;;;;;;;;5023778;28;20190;-82
2020/12/12 04:01:03;;;;;;;6.60;2.43;;;;;;;;;;5023202;28;20449;-82
2020/12/12 04:03:29;;;;;;;7.75;2.90;;;;;;;;;;5020048;28;20425;-81
2020/12/12 04:05:55;;;;;;;11.65;2.42;;;;;;;;;;5014416;28;20229;-81
2020/12/12 04:08:21;;;;;;;7.50;2.42;;;;;;;;;;5016285;28;20185;-80
2020/12/12 04:10:47;;;;;;;6.90;2.60;;;;;;;;;;5017426;28;20179;-81
2020/12/12 04:13:13;;;;;;;6.47;3.23;;;;;;;;;;5033936;28;20226;-80
2020/12/12 04:15:38;;;;;;;9.55;2.40;;;;;;;;;;5023166;28;20465;-81
2020/12/12 04:18:04;;;;;;;4.80;2.00;;;;;;;;;;5014584;28;20297;-81
2020/12/12 04:20:30;;;;;;;5.85;2.50;;;;;;;;;;5023756;28;20437;-81
2020/12/12 04:22:56;;;;;;;4.72;2.05;;;;;;;;;;5022089;28;20196;-81
2020/12/12 04:25:22;;;;;;;8.02;2.00;;;;;;;;;;5012025;28;20202;-81
2020/12/12 04:27:48;;;;;;;5.55;2.25;;;;;;;;;;5020134;28;20179;-80
2020/12/12 04:30:14;;;;;;;10.50;2.70;;;;;;;;;;5023358;28;20636;-82
2020/12/12 04:32:40;;;;;;;6.18;1.95;;;;;;;;;;5023054;28;20193;-82
2020/12/12 04:35:07;;;;;;;4.10;2.42;;;;;;;;;;5022947;28;20210;-82
2020/12/12 04:37:33;;;;;;;5.85;2.38;;;;;;;;;;5021785;28;20187;-82
2020/12/12 04:39:59;;;;;;;15.77;5.00;;;;;;;;;;5022113;28;20212;-82
2020/12/12 04:42:26;;;;;;;7.97;2.30;;;;;;;;;;5016622;28;20194;-81
2020/12/12 04:44:53;;;;;;;7.25;2.45;;;;;;;;;;5022680;28;20213;-82
2020/12/12 04:47:19;;;;;;;5.95;2.38;;;;;;;;;;5018065;28;20197;-81
2020/12/12 04:49:45;;;;;;;5.38;2.63;;;;;;;;;;5022113;28;20210;-80
2020/12/12 04:52:12;;;;;;;8.82;2.50;;;;;;;;;;5021419;28;20183;-82
2020/12/12 04:54:38;;;;;;;5.45;2.45;;;;;;;;;;5022420;28;20233;-82
2020/12/12 04:57:05;;;;;;;6.90;2.40;;;;;;;;;;5020253;28;20185;-81
2020/12/12 04:59:33;;;;;;;6.25;2.80;;;;;;;;;;5017406;28;20191;-81
2020/12/12 05:02:00;;;;;;;4.10;1.95;;;;;;;;;;5023655;28;20218;-82
2020/12/12 05:04:26;;;;;;;7.50;1.85;;;;;;;;;;5023371;28;20210;-82
2020/12/12 05:06:52;;;;;;;3.88;1.88;;;;;;;;;;5021044;28;20237;-81
2020/12/12 05:09:18;;;;;;;8.35;2.20;;;;;;;;;;5017787;28;20189;-81
2020/12/12 05:11:45;;;;;;;5.78;1.73;;;;;;;;;;5022375;28;20241;-82
2020/12/12 05:14:11;;;;;;;7.18;2.33;;;;;;;;;;5022599;28;20251;-82
2020/12/12 05:16:37;;;;;;;12.00;2.70;;;;;;;;;;5018466;28;20190;-81
2020/12/12 05:19:05;;;;;;;7.83;1.60;;;;;;;;;;5022396;28;20250;-81
2020/12/12 05:21:31;;;;;;;8.65;2.15;;;;;;;;;;5013969;28;20808;-81
2020/12/12 05:23:58;;;;;;;6.80;2.78;;;;;;;;;;5020527;28;20194;-81
2020/12/12 05:26:25;;;;;;;4.40;1.92;;;;;;;;;;5017102;28;20699;-81
2020/12/12 05:28:51;;;;;;;5.57;2.45;;;;;;;;;;5019604;28;20240;-81
2020/12/12 05:31:18;;;;;;;9.40;3.03;;;;;;;;;;5020879;28;20182;-81
2020/12/12 05:33:44;;;;;;;5.70;2.72;;;;;;;;;;5019358;28;20179;-81
2020/12/12 05:36:11;;;;;;;8.05;3.28;;;;;;;;;;5017467;28;20265;-81
2020/12/12 05:38:37;;;;;;;9.82;3.30;;;;;;;;;;5031901;28;20198;-81
2020/12/12 05:41:04;;;;;;;4.22;3.10;;;;;;;;;;5021497;28;20190;-82
2020/12/12 05:43:35;;;;;;;10.55;3.95;;;;;;;;;;5020913;28;20199;-82
2020/12/12 05:46:01;;;;;;;5.88;2.78;;;;;;;;;;5020534;28;20218;-81
2020/12/12 05:48:27;;;;;;;4.45;2.40;;;;;;;;;;5021768;28;20174;-82
2020/12/12 05:50:54;;;;;;;2.92;2.35;;;;;;;;;;5009909;28;20187;-82
2020/12/12 05:53:20;;;;;;;5.97;2.17;;;;;;;;;;5015024;28;20190;-82
2020/12/12 05:55:46;;;;;;;4.40;2.67;;;;;;;;;;5021123;28;20264;-82
2020/12/12 05:58:16;;;;;;;6.32;3.05;;;;;;;;;;5017030;28;20190;-81
2020/12/12 06:00:42;;;;;;;3.80;2.33;;;;;;;;;;5026739;28;20257;-81
2020/12/12 06:03:37;;;;;;;2.58;1.45;;;;;;;;;;5021243;28;20182;-82
2020/12/12 06:06:04;;;;;;;3.55;1.90;;;;;;;;;;5003839;28;20332;-82
2020/12/12 06:08:35;;;;;;;7.10;1.77;;;;;;;;;;5014616;28;20268;-82
2020/12/12 06:11:05;;;;;;;7.90;3.22;;;;;;;;;;5026566;28;20545;-82
2020/12/12 06:13:39;;;;;;;7.22;2.88;;;;;;;;;;5024636;28;20178;-82
2020/12/12 06:16:06;;;;;;;8.02;2.40;;;;;;;;;;5024582;28;20308;-82
2020/12/12 06:18:43;;;;;;;7.88;2.58;;;;;;;;;;5016272;28;20210;-81
2020/12/12 06:21:09;;;;;;;4.95;2.15;;;;;;;;;;5017910;28;20178;-81
2020/12/12 06:23:39;;;;;;;5.85;3.03;;;;;;;;;;5035849;28;20187;-82
2020/12/12 06:26:06;;;;;;;6.97;2.05;;;;;;;;;;5021323;28;20253;-82
2020/12/12 06:28:34;;;;;;;4.85;1.75;;;;;;;;;;5040785;28;20179;-82
2020/12/12 06:31:00;;;;;;;9.70;1.75;;;;;;;;;;5026318;28;20655;-82
2020/12/12 06:33:26;;;;;;;3.53;2.10;;;;;;;;;;5025986;28;20178;-82
2020/12/12 06:35:53;;;;;;;4.93;2.47;;;;;;;;;;5022827;28;20190;-83
2020/12/12 06:38:24;;;;;;;5.43;2.50;;;;;;;;;;5016809;28;20450;-82
2020/12/12 06:40:51;;;;;;;3.70;2.35;;;;;;;;;;5017451;28;20187;-82
2020/12/12 06:43:43;;;;;;;3.38;1.70;;;;;;;;;;5023878;28;20187;-82
2020/12/12 06:46:09;;;;;;;5.10;1.92;;;;;;;;;;5028183;28;20312;-82
2020/12/12 06:48:35;;;;;;;6.72;2.50;;;;;;;;;;5021182;28;20321;-81
2020/12/12 06:51:02;;;;;;;5.80;1.90;;;;;;;;;;5021407;28;20247;-81
2020/12/12 06:53:32;;;;;;;4.60;2.28;;;;;;;;;;5030383;28;20182;-82
2020/12/12 06:56:08;;;;;;;5.30;2.13;;;;;;;;;;5023425;28;20186;-82
2020/12/12 06:58:34;;;;;;;2.47;1.50;;;;;;;;;;5021125;28;20277;-81
2020/12/12 07:01:00;;;;;;;4.63;2.22;;;;;;;;;;5023768;28;20236;-82
2020/12/12 07:03:26;;;;;;;4.07;2.00;;;;;;;;;;5025748;28;20246;-82
2020/12/12 07:06:05;;;;;;;6.15;2.53;;;;;;;;;;5019208;28;20465;-83
2020/12/12 07:08:31;;;;;;;2.17;1.63;;;;;;;;;;5015053;28;20214;-83
2020/12/12 07:10:57;;;;;;;5.15;2.10;;;;;;;;;;5020540;28;20187;-82
2020/12/12 07:13:23;;;;;;;5.90;1.90;;;;;;;;;;5031446;28;20541;-80
2020/12/12 07:15:49;;;;;;;3.75;1.95;;;;;;;;;;5022559;28;20179;-82
2020/12/12 07:18:15;;;;;;;4.90;2.33;;;;;;;;;;5024106;28;20170;-82
2020/12/12 07:20:45;;;;;;;8.52;2.30;;;;;;;;;;5018617;28;21062;-82
2020/12/12 07:23:11;;;;;;;5.40;2.45;;;;;;;;;;5017297;28;20210;-81
2020/12/12 07:25:38;;;;;;;11.00;2.25;;;;;;;;;;5023604;28;20206;-82
2020/12/12 07:28:04;;;;;;;4.68;1.70;;;;;;;;;;5017730;28;20254;-82
2020/12/12 07:30:30;;;;;;;6.13;2.35;;;;;;;;;;5023492;28;20187;-81
2020/12/12 07:32:56;;;;;;;3.88;2.00;;;;;;;;;;5018019;28;20189;-81
2020/12/12 07:35:22;;;;;;;4.97;1.80;;;;;;;;;;5021848;28;20277;-81
2020/12/12 07:37:48;;;;;;;6.18;2.25;;;;;;;;;;5023306;28;20206;-81
2020/12/12 07:40:15;;;;;;;5.97;3.33;;;;;;;;;;5022999;28;20218;-81
2020/12/12 07:42:41;;;;;;;6.85;2.92;;;;;;;;;;5036517;28;20187;-80
2020/12/12 07:45:24;;;;;;;2.58;1.73;;;;;;;;;;5024515;28;20199;-79
2020/12/12 07:47:51;;;;;;;8.40;2.78;;;;;;;;;;5019908;28;20601;-81
2020/12/12 07:50:17;;;;;;;4.68;2.20;;;;;;;;;;5023871;28;20190;-81
2020/12/12 07:52:43;;;;;;;3.90;1.55;;;;;;;;;;5023231;28;20280;-81
2020/12/12 07:55:11;;;;;;;7.60;2.40;;;;;;;;;;5020294;28;20222;-82
2020/12/12 07:57:42;;;;;;;6.65;2.97;;;;;;;;;;5011272;28;20258;-84
2020/12/12 08:00:09;;;;;;;5.50;2.63;;;;;;;;;;5016728;28;20189;-81
2020/12/12 08:02:35;;;;;;;6.85;2.55;;;;;;;;;;5021492;28;20221;-83
2020/12/12 08:05:02;;;;;;;3.58;1.88;;;;;;;;;;5017526;28;20213;-82
2020/12/12 08:07:32;;;;;;;11.77;2.15;;;;;;;;;;5021315;28;20209;-82
2020/12/12 08:09:59;;;;;;;5.13;2.30;;;;;;;;;;5016971;28;20182;-81
2020/12/12 08:12:32;;;;;;;2.97;2.72;;;;;;;;;;5021714;28;20182;-81
2020/12/12 08:15:02;;;;;;;3.15;1.95;;;;;;;;;;5010621;28;20187;-83
2020/12/12 08:17:30;;;;;;;5.25;2.47;;;;;;;;;;5016115;28;20198;-83
2020/12/12 08:19:56;;;;;;;3.92;1.80;;;;;;;;;;5020084;28;20186;-82
2020/12/12 08:22:24;;;;;;;8.60;1.67;;;;;;;;;;5021194;28;20210;-82
2020/12/12 08:24:51;;;;;;;3.85;2.00;;;;;;;;;;5021679;28;20449;-82
2020/12/12 08:27:21;;;;;;;9.43;3.13;;;;;;;;;;5022572;28;20185;-81
2020/12/12 08:29:53;;;;;;;11.30;2.15;;;;;;;;;;5013473;28;20753;-82
2020/12/12 08:32:31;;;;;;;7.25;2.15;;;;;;;;;;5018363;28;20202;-81
2020/12/12 08:35:09;;;;;;;5.78;2.13;;;;;;;;;;5020991;28;20220;-82
2020/12/12 08:37:35;;;;;;;7.43;2.50;;;;;;;;;;5022055;28;20178;-83
2020/12/12 08:40:09;;;;;;;5.18;2.60;;;;;;;;;;5023026;28;20186;-81
2020/12/12 08:42:35;;;;;;;2.63;2.42;;;;;;;;;;5019839;28;20202;-82
2020/12/12 08:45:12;;;;;;;4.90;3.35;;;;;;;;;;5015033;28;20241;-81
2020/12/12 08:47:38;;;;;;;5.00;2.90;;;;;;;;;;5016067;28;20274;-82
2020/12/12 08:50:04;;;;;;;3.50;2.22;;;;;;;;;;5019943;28;20245;-82
2020/12/12 08:52:30;;;;;;;4.03;2.53;;;;;;;;;;5021879;28;20585;-81
2020/12/12 08:54:59;;;;;;;9.13;2.40;;;;;;;;;;5021964;28;20508;-82
2020/12/12 08:57:25;;;;;;;5.18;2.50;;;;;;;;;;5019907;28;20194;-82
2020/12/12 09:00:02;;;;;;;7.32;2.40;;;;;;;;;;5023565;28;20221;-83
2020/12/12 09:02:28;;;;;;;3.65;2.50;;;;;;;;;;5018799;28;20186;-82
2020/12/12 09:05:10;;;;;;;9.40;2.40;;;;;;;;;;5020212;28;20206;-83
2020/12/12 09:07:36;;;;;;;5.85;2.72;;;;;;;;;;5015317;28;20581;-82
2020/12/12 09:10:09;;;;;;;4.07;2.35;;;;;;;;;;5021027;28;20178;-82
2020/12/12 09:12:49;;;;;;;6.20;2.67;;;;;;;;;;5022643;28;20440;-82
2020/12/12 09:15:15;;;;;;;5.55;2.60;;;;;;;;;;5014619;28;20232;-82
2020/12/12 09:17:41;;;;;;;6.18;3.00;;;;;;;;;;5035669;28;20186;-82
2020/12/12 09:20:08;;;;;;;3.88;2.97;;;;;;;;;;5016644;28;20208;-81
2020/12/12 09:22:34;;;;;;;3.85;2.45;;;;;;;;;;5018562;28;20189;-83
2020/12/12 09:25:01;;;;;;;13.48;3.58;;;;;;;;;;5015364;28;20257;-82
2020/12/12 09:27:27;;;;;;;6.35;2.72;;;;;;;;;;5019860;28;20182;-82
2020/12/12 09:29:53;;;;;;;5.93;3.65;;;;;;;;;;5013772;28;20250;-81
2020/12/12 09:32:19;;;;;;;6.17;2.93;;;;;;;;;;5009978;28;20221;-82
2020/12/12 09:34:45;;;;;;;9.68;3.30;;;;;;;;;;5017826;28;20440;-83
2020/12/12 09:37:11;;;;;;;4.20;2.40;;;;;;;;;;5032190;28;20190;-83
2020/12/12 09:39:38;;;;;;;7.10;3.63;;;;;;;;;;5023480;28;20425;-82
2020/12/12 09:42:04;;;;;;;6.25;3.95;;;;;;;;;;5017105;28;20186;-82
2020/12/12 09:44:30;;;;;;;4.25;3.60;;;;;;;;;;5012183;28;20225;-82
2020/12/12 09:46:56;;;;;;;10.75;3.85;;;;;;;;;;5035314;28;20183;-83
2020/12/12 09:49:22;;;;;;;6.22;3.70;;;;;;;;;;5019178;28;20183;-82
2020/12/12 09:51:48;;;;;;;4.50;3.28;;;;;;;;;;5010729;28;20187;-82
2020/12/12 09:54:14;;;;;;;6.25;3.30;;;;;;;;;;5019393;28;20222;-82
2020/12/12 09:56:41;;;;;;;8.48;3.72;;;;;;;;;;5017888;28;20193;-82
2020/12/12 09:59:07;;;;;;;5.40;3.97;;;;;;;;;;5015650;28;20210;-82
2020/12/12 10:01:33;;;;;;;8.75;4.65;;;;;;;;;;5011633;28;20218;-81
2020/12/12 10:03:59;;;;;;;9.43;5.07;;;;;;;;;;5014864;28;20183;-83
2020/12/12 10:06:25;;;;;;;8.07;5.30;;;;;;;;;;5012943;28;20461;-82
2020/12/12 10:08:51;;;;;;;5.32;4.40;;;;;;;;;;5014798;28;20981;-83
2020/12/12 10:11:17;;;;;;;6.73;4.40;;;;;;;;;;5014264;28;20191;-82
2020/12/12 10:13:43;;;;;;;11.48;4.72;;;;;;;;;;5014613;28;20449;-82
2020/12/12 10:16:09;;;;;;;9.52;4.40;;;;;;;;;;5020213;28;20190;-82
2020/12/12 10:18:35;;;;;;;5.00;4.33;;;;;;;;;;5026303;28;20217;-81
2020/12/12 10:21:01;;;;;;;6.10;3.60;;;;;;;;;;5010782;28;20515;-83
2020/12/12 10:23:27;;;;;;;4.47;4.03;;;;;;;;;;5036001;28;20453;-81
2020/12/12 10:25:52;;;;;;;4.90;4.40;;;;;;;;;;5019412;28;20555;-82
2020/12/12 10:28:18;;;;;;;5.87;4.10;;;;;;;;;;5021105;28;20242;-81
2020/12/12 10:30:44;;;;;;;6.55;4.82;;;;;;;;;;5021728;28;20410;-82
2020/12/12 10:33:10;;;;;;;11.23;5.10;;;;;;;;;;5021435;28;20177;-82
2020/12/12 10:35:36;;;;;;;5.88;4.03;;;;;;;;;;5036535;28;20233;-84
2020/12/12 10:38:03;;;;;;;7.53;4.18;;;;;;;;;;5014193;28;20194;-82
2020/12/12 10:42:57;;;;;;;4.78;4.13;;;;;;;;;;5022300;28;20195;-81
2020/12/12 10:45:23;;;;;;;5.23;4.33;;;;;;;;;;5023073;28;20252;-81
2020/12/12 10:47:49;;;;;;;4.85;3.75;;;;;;;;;;5019749;28;20806;-82
2020/12/12 10:50:15;;;;;;;4.67;4.20;;;;;;;;;;5017374;28;20203;-82
2020/12/12 10:52:42;;;;;;;5.70;4.10;;;;;;;;;;5033630;28;20753;-82
2020/12/12 10:55:08;;;;;;;3.42;2.90;;;;;;;;;;5022949;28;20836;-83
2020/12/12 10:57:34;;;;;;;10.40;4.10;;;;;;;;;;5024707;28;20202;-81
2020/12/12 11:00:02;;;;;;;8.00;4.13;;;;;;;;;;5019612;28;20659;-81
2020/12/12 11:02:29;;;;;;;6.55;3.83;;;;;;;;;;5021416;28;20445;-81
2020/12/12 11:04:55;;;;;;;6.35;3.85;;;;;;;;;;5016723;28;20826;-83
2020/12/12 11:07:21;;;;;;;6.65;3.80;;;;;;;;;;5048812;28;20194;-83
2020/12/12 11:09:48;;;;;;;7.85;4.13;;;;;;;;;;5035433;28;20182;-82
2020/12/12 11:12:14;;;;;;;6.43;3.50;;;;;;;;;;5022183;28;20183;-82
2020/12/12 11:14:47;;;;;;;5.00;3.33;;;;;;;;;;5021904;28;20193;-83
2020/12/12 11:17:13;;;;;;;8.30;3.45;;;;;;;;;;5027056;28;20236;-82
2020/12/12 11:19:39;;;;;;;6.18;2.80;;;;;;;;;;5024648;28;20510;-80
2020/12/12 11:22:05;;;;;;;6.35;3.45;;;;;;;;;;5019275;28;20238;-82
2020/12/12 11:24:31;;;;;;;4.93;3.03;;;;;;;;;;5014788;28;20190;-83
2020/12/12 11:26:57;;;;;;;5.97;3.22;;;;;;;;;;5020374;28;20435;-82
2020/12/12 11:29:24;;;;;;;5.05;2.55;;;;;;;;;;5017298;28;20202;-82
2020/12/12 11:31:52;;;;;;;5.68;3.70;;;;;;;;;;5024362;28;20178;-83
2020/12/12 11:34:32;;;;;;;7.65;3.58;;;;;;;;;;5022282;28;20182;-84
2020/12/12 11:39:53;;;;;;;5.13;2.88;;;;;;;;;;5021501;28;20196;-83
2020/12/12 11:47:35;;;;;;;4.53;3.22;;;;;;;;;;5024181;28;20188;-82
2020/12/12 11:50:02;;;;;;;5.00;3.00;;;;;;;;;;5018345;28;20264;-83
2020/12/12 11:52:27;;;;;;;9.13;3.97;;;;;;;;;;5020810;28;20557;-82
2020/12/12 11:54:54;;;;;;;4.87;3.77;;;;;;;;;;5020701;28;20250;-82
2020/12/12 11:57:20;;;;;;;9.55;3.88;;;;;;;;;;5017845;28;20438;-82
2020/12/12 11:59:46;;;;;;;5.95;3.83;;;;;;;;;;5017208;28;20235;-83
2020/12/12 12:02:12;;;;;;;4.78;3.70;;;;;;;;;;5018651;28;20529;-80
2020/12/12 12:04:38;;;;;;;6.70;4.15;;;;;;;;;;5022753;28;20233;-83
2020/12/12 12:07:06;;;;;;;4.38;3.40;;;;;;;;;;5011407;28;20659;-82
2020/12/12 12:09:38;;;;;;;9.52;3.38;;;;;;;;;;5023178;28;20182;-84
2020/12/12 12:12:04;;;;;;;8.35;3.78;;;;;;;;;;5013281;28;20572;-83
2020/12/12 12:14:30;;;;;;;3.40;3.10;;;;;;;;;;5012451;28;20221;-83
2020/12/12 12:16:56;;;;;;;8.32;3.53;;;;;;;;;;5022590;28;20210;-84
2020/12/12 12:19:22;;;;;;;5.40;3.13;;;;;;;;;;5019232;28;20190;-83
2020/12/12 12:21:49;;;;;;;4.80;3.33;;;;;;;;;;5023911;28;20229;-82
2020/12/12 12:24:16;;;;;;;3.40;2.92;;;;;;;;;;5016240;28;20209;-82
2020/12/12 12:26:43;;;;;;;3.72;2.42;;;;;;;;;;5024991;28;20596;-83
2020/12/12 12:29:13;;;;;;;3.15;2.83;;;;;;;;;;5027613;28;20187;-84
2020/12/12 12:31:40;;;;;;;4.53;3.38;;;;;;;;;;5019333;28;20551;-83
2020/12/12 12:34:07;;;;;;;4.38;2.50;;;;;;;;;;5018953;28;20245;-83
2020/12/12 12:36:33;;;;;;;5.00;3.00;;;;;;;;;;5020721;28;20182;-82
2020/12/12 12:39:00;;;;;;;4.40;3.30;;;;;;;;;;5019987;28;20289;-82
2020/12/12 12:41:26;;;;;;;3.47;2.70;;;;;;;;;;5018216;28;20214;-81
2020/12/12 12:43:54;;;;;;;3.90;2.40;;;;;;;;;;5015000;28;20401;-80
2020/12/12 12:46:20;;;;;;;2.10;2.00;;;;;;;;;;5021964;28;20194;-88
2020/12/12 12:48:46;;;;;;;3.40;2.35;;;;;;;;;;5017712;28;20187;-82
2020/12/12 12:51:12;;;;;;;4.15;3.67;;;;;;;;;;5023714;28;20217;-82
2020/12/12 12:53:38;;;;;;;3.05;2.00;;;;;;;;;;5022578;28;20262;-80
2020/12/12 12:56:04;;;;;;;2.83;2.50;;;;;;;;;;5021061;28;20218;-81
2020/12/12 12:58:30;;;;;;;4.25;2.22;;;;;;;;;;5018328;28;20226;-82
2020/12/12 13:00:56;;;;;;;2.93;2.70;;;;;;;;;;5022277;28;20226;-83
2020/12/12 13:03:23;;;;;;;3.70;1.92;;;;;;;;;;5017494;28;20437;-82
2020/12/12 13:05:49;;;;;;;3.13;2.92;;;;;;;;;;5022861;28;20222;-82
2020/12/12 13:08:16;;;;;;;3.65;2.63;;;;;;;;;;5021114;28;20186;-81
2020/12/12 13:10:42;;;;;;;2.20;1.55;;;;;;;;;;5019713;28;20197;-82
2020/12/12 13:13:10;;;;;;;4.65;2.40;;;;;;;;;;5021097;28;20190;-82
2020/12/12 13:15:36;;;;;;;4.18;3.55;;;;;;;;;;5021920;28;20193;-80
2020/12/12 13:18:06;;;;;;;3.30;3.07;;;;;;;;;;5022817;28;20261;-79
2020/12/12 13:23:34;;;;;;;2.80;2.03;;;;;;;;;;4981932;28;20200;-81
2020/12/12 13:26:00;;;;;;;3.30;3.00;;;;;;;;;;4966616;28;20221;-79
2020/12/12 13:31:11;;;;;;;6.40;3.35;;;;;;;;;;4977209;28;20459;-79
2020/12/12 13:33:37;;;;;;;4.10;2.95;;;;;;;;;;4977957;28;20210;-81
2020/12/12 13:36:08;;;;;;;6.93;2.40;;;;;;;;;;4972306;28;20198;-81
2020/12/12 13:38:34;;;;;;;3.42;1.85;;;;;;;;;;4979567;28;20207;-80
2020/12/12 13:41:01;;;;;;;2.58;2.38;;;;;;;;;;4959850;28;20192;-80
2020/12/12 13:43:27;;;;;;;3.20;1.85;;;;;;;;;;4978443;28;20188;-80
2020/12/12 13:45:53;;;;;;;3.10;1.57;;;;;;;;;;4965226;28;20204;-80
2020/12/12 13:48:19;;;;;;;2.43;2.20;;;;;;;;;;4966341;28;21015;-81
2020/12/12 13:50:45;;;;;;;2.80;2.10;;;;;;;;;;4981760;28;20439;-79
2020/12/12 13:53:11;;;;;;;2.78;2.10;;;;;;;;;;4962238;28;20195;-80
2020/12/12 13:55:37;;;;;;;2.35;2.15;;;;;;;;;;4933615;28;22885;-81
2020/12/12 13:58:04;;;;;;;4.78;2.20;;;;;;;;;;5013620;28;20782;-81
2020/12/12 14:00:30;;;;;;;3.50;3.20;;;;;;;;;;5021854;28;20197;-81
2020/12/12 14:02:56;;;;;;;3.55;2.30;;;;;;;;;;5033522;28;20285;-82
2020/12/12 14:05:23;;;;;;;3.20;2.20;;;;;;;;;;5016792;28;20230;-83
2020/12/12 14:07:51;;;;;;;7.25;3.13;;;;;;;;;;5015836;28;20429;-84
2020/12/12 14:21:23;;;;;;;2.83;1.42;;;;;;;;;;5018491;28;20364;-78
2020/12/12 14:23:48;;;;;;;3.90;2.50;;;;;;;;;;5023161;28;20202;-81
2020/12/12 14:26:21;;;;;;;2.58;2.00;;;;;;;;;;5016944;28;20211;-79
2020/12/12 14:28:48;;;;;;;3.95;1.65;;;;;;;;;;5024709;28;20194;-81
2020/12/12 14:31:14;;;;;;;2.10;1.90;;;;;;;;;;5023668;28;20250;-80
2020/12/12 14:33:40;;;;;;;4.50;1.83;;;;;;;;;;5025015;28;20651;-79
2020/12/12 14:36:07;;;;;;;2.05;1.80;;;;;;;;;;5017483;28;20292;-78
2020/12/12 14:38:33;;;;;;;3.10;2.00;;;;;;;;;;5024444;28;20193;-81
2020/12/12 14:40:59;;;;;;;3.65;1.73;;;;;;;;;;5020606;28;20198;-79
2020/12/12 14:43:25;;;;;;;3.50;1.40;;;;;;;;;;5037925;28;20191;-80
2020/12/12 14:45:51;;;;;;;4.80;2.27;;;;;;;;;;5015917;28;20569;-79
2020/12/12 14:48:17;;;;;;;4.15;1.95;;;;;;;;;;5020968;28;20977;-79
2020/12/12 14:50:43;;;;;;;3.35;2.00;;;;;;;;;;5019116;28;20205;-78
2020/12/12 14:53:18;;;;;;;1.55;1.45;;;;;;;;;;5021811;28;20186;-81
2020/12/12 14:55:44;;;;;;;7.00;2.22;;;;;;;;;;5020862;28;20230;-78
2020/12/12 14:58:10;;;;;;;5.45;2.42;;;;;;;;;;5023405;28;20243;-80
2020/12/12 15:00:36;;;;;;;4.25;2.40;;;;;;;;;;5028841;28;20239;-79
2020/12/12 15:03:02;;;;;;;7.63;2.15;;;;;;;;;;5040540;28;20198;-80
2020/12/12 15:05:28;;;;;;;2.23;1.60;;;;;;;;;;5019972;28;20682;-79
2020/12/12 15:07:54;;;;;;;2.45;1.85;;;;;;;;;;5019421;28;20448;-80